sensor_id;sensor_type;location;lat;lon;timestamp;P1;durP1;ratioP1;P2;durP2;ratioP2
43690;SDS011;29293;52.190;21.226;2023-07-22T00:06:03;8.20;;;5.90;;
43690;SDS011;29293;52.190;21.226;2023-07-22T00:21:08;9.00;;;5.90;;
43690;SDS011;29293;52.190;21.226;2023-07-22T00:36:11;8.10;;;6.00;;
43690;SDS011;29293;52.190;21.226;2023-07-22T00:51:15;9.60;;;6.50;;
43690;SDS011;29293;52.190;21.226;2023-07-22T01:06:20;10.50;;;7.80;;
43690;SDS011;29293;52.190;21.226;2023-07-22T01:21:24;8.40;;;7.10;;
43690;SDS011;29293;52.190;21.226;2023-07-22T01:36:28;9.00;;;7.80;;
43690;SDS011;29293;52.190;21.226;2023-07-22T01:51:32;11.00;;;7.90;;
43690;SDS011;29293;52.190;21.226;2023-07-22T02:06:36;15.40;;;9.00;;
43690;SDS011;29293;52.190;21.226;2023-07-22T02:21:40;18.10;;;9.00;;
43690;SDS011;29293;52.190;21.226;2023-07-22T02:36:46;8.70;;;7.80;;
43690;SDS011;29293;52.190;21.226;2023-07-22T02:51:50;9.80;;;8.30;;
43690;SDS011;29293;52.190;21.226;2023-07-22T03:06:53;10.20;;;9.10;;
43690;SDS011;29293;52.190;21.226;2023-07-22T03:21:56;12.00;;;9.70;;
43690;SDS011;29293;52.190;21.226;2023-07-22T03:37:01;13.70;;;9.30;;
43690;SDS011;29293;52.190;21.226;2023-07-22T03:52:05;11.60;;;9.40;;
43690;SDS011;29293;52.190;21.226;2023-07-22T04:07:10;11.40;;;9.20;;
43690;SDS011;29293;52.190;21.226;2023-07-22T04:22:13;12.00;;;9.60;;
43690;SDS011;29293;52.190;21.226;2023-07-22T04:37:17;11.40;;;9.80;;
43690;SDS011;29293;52.190;21.226;2023-07-22T04:52:21;10.70;;;9.60;;
43690;SDS011;29293;52.190;21.226;2023-07-22T05:07:25;10.40;;;9.40;;
43690;SDS011;29293;52.190;21.226;2023-07-22T05:22:31;13.20;;;9.50;;
43690;SDS011;29293;52.190;21.226;2023-07-22T05:37:35;13.20;;;8.80;;
43690;SDS011;29293;52.190;21.226;2023-07-22T05:52:39;9.30;;;8.30;;
43690;SDS011;29293;52.190;21.226;2023-07-22T06:07:46;10.20;;;6.90;;
43690;SDS011;29293;52.190;21.226;2023-07-22T06:22:49;9.30;;;6.90;;
43690;SDS011;29293;52.190;21.226;2023-07-22T06:37:53;7.80;;;6.70;;
43690;SDS011;29293;52.190;21.226;2023-07-22T06:52:56;9.00;;;5.40;;
43690;SDS011;29293;52.190;21.226;2023-07-22T07:08:00;6.80;;;4.70;;
43690;SDS011;29293;52.190;21.226;2023-07-22T07:23:04;4.80;;;3.70;;
43690;SDS011;29293;52.190;21.226;2023-07-22T07:38:08;4.40;;;3.50;;
43690;SDS011;29293;52.190;21.226;2023-07-22T07:53:12;8.50;;;3.60;;
43690;SDS011;29293;52.190;21.226;2023-07-22T08:08:19;8.10;;;3.30;;
43690;SDS011;29293;52.190;21.226;2023-07-22T08:23:25;6.10;;;3.10;;
43690;SDS011;29293;52.190;21.226;2023-07-22T08:38:30;4.20;;;2.80;;
43690;SDS011;29293;52.190;21.226;2023-07-22T08:53:33;6.10;;;2.70;;
43690;SDS011;29293;52.190;21.226;2023-07-22T09:08:39;5.70;;;2.30;;
43690;SDS011;29293;52.190;21.226;2023-07-22T09:23:42;2.70;;;1.90;;
43690;SDS011;29293;52.190;21.226;2023-07-22T09:38:47;4.50;;;2.10;;
43690;SDS011;29293;52.190;21.226;2023-07-22T09:54:05;4.70;;;2.00;;
43690;SDS011;29293;52.190;21.226;2023-07-22T10:09:12;6.00;;;2.50;;
43690;SDS011;29293;52.190;21.226;2023-07-22T10:24:20;3.50;;;1.90;;
43690;SDS011;29293;52.190;21.226;2023-07-22T10:39:26;2.50;;;1.70;;
43690;SDS011;29293;52.190;21.226;2023-07-22T10:54:32;4.50;;;1.80;;
43690;SDS011;29293;52.190;21.226;2023-07-22T11:09:39;3.20;;;1.60;;
43690;SDS011;29293;52.190;21.226;2023-07-22T11:24:44;2.70;;;1.60;;
43690;SDS011;29293;52.190;21.226;2023-07-22T11:39:47;2.70;;;1.60;;
43690;SDS011;29293;52.190;21.226;2023-07-22T11:54:51;2.70;;;1.50;;
43690;SDS011;29293;52.190;21.226;2023-07-22T12:09:57;2.80;;;1.70;;
43690;SDS011;29293;52.190;21.226;2023-07-22T12:25:01;2.60;;;1.70;;
43690;SDS011;29293;52.190;21.226;2023-07-22T12:40:07;2.90;;;1.80;;
43690;SDS011;29293;52.190;21.226;2023-07-22T12:55:14;4.10;;;2.10;;
43690;SDS011;29293;52.190;21.226;2023-07-22T13:10:18;4.40;;;1.90;;
43690;SDS011;29293;52.190;21.226;2023-07-22T13:25:24;5.90;;;1.70;;
43690;SDS011;29293;52.190;21.226;2023-07-22T13:40:29;4.20;;;1.80;;
43690;SDS011;29293;52.190;21.226;2023-07-22T13:55:33;5.30;;;2.20;;
43690;SDS011;29293;52.190;21.226;2023-07-22T14:10:37;4.20;;;1.90;;
43690;SDS011;29293;52.190;21.226;2023-07-22T14:25:42;3.20;;;2.00;;
43690;SDS011;29293;52.190;21.226;2023-07-22T14:40:47;6.50;;;1.90;;
43690;SDS011;29293;52.190;21.226;2023-07-22T14:55:51;3.40;;;2.00;;
43690;SDS011;29293;52.190;21.226;2023-07-22T15:10:55;4.60;;;2.20;;
43690;SDS011;29293;52.190;21.226;2023-07-22T15:26:00;4.40;;;2.10;;
43690;SDS011;29293;52.190;21.226;2023-07-22T15:41:04;2.90;;;2.10;;
43690;SDS011;29293;52.190;21.226;2023-07-22T15:56:09;4.10;;;2.10;;
43690;SDS011;29293;52.190;21.226;2023-07-22T16:11:13;4.00;;;2.10;;
43690;SDS011;29293;52.190;21.226;2023-07-22T16:26:18;4.30;;;2.20;;
43690;SDS011;29293;52.190;21.226;2023-07-22T16:41:22;3.20;;;2.20;;
43690;SDS011;29293;52.190;21.226;2023-07-22T16:56:27;4.50;;;2.10;;
43690;SDS011;29293;52.190;21.226;2023-07-22T17:11:31;3.30;;;1.90;;
43690;SDS011;29293;52.190;21.226;2023-07-22T17:26:35;5.30;;;2.10;;
43690;SDS011;29293;52.190;21.226;2023-07-22T17:41:39;3.00;;;2.00;;
43690;SDS011;29293;52.190;21.226;2023-07-22T17:56:43;4.30;;;2.00;;
43690;SDS011;29293;52.190;21.226;2023-07-22T18:11:47;3.20;;;2.30;;
43690;SDS011;29293;52.190;21.226;2023-07-22T18:26:51;3.80;;;2.10;;
43690;SDS011;29293;52.190;21.226;2023-07-22T18:41:54;3.90;;;2.30;;
43690;SDS011;29293;52.190;21.226;2023-07-22T18:56:58;4.80;;;2.50;;
43690;SDS011;29293;52.190;21.226;2023-07-22T19:12:03;4.60;;;2.70;;
43690;SDS011;29293;52.190;21.226;2023-07-22T19:27:08;4.20;;;2.60;;
43690;SDS011;29293;52.190;21.226;2023-07-22T19:42:12;7.20;;;2.90;;
43690;SDS011;29293;52.190;21.226;2023-07-22T19:57:16;12.90;;;2.90;;
43690;SDS011;29293;52.190;21.226;2023-07-22T20:12:20;5.20;;;2.80;;
43690;SDS011;29293;52.190;21.226;2023-07-22T20:27:24;6.60;;;3.30;;
43690;SDS011;29293;52.190;21.226;2023-07-22T20:42:28;5.10;;;3.80;;
43690;SDS011;29293;52.190;21.226;2023-07-22T20:57:31;5.90;;;3.60;;
43690;SDS011;29293;52.190;21.226;2023-07-22T21:12:35;6.80;;;3.60;;
43690;SDS011;29293;52.190;21.226;2023-07-22T21:27:41;10.80;;;4.60;;
43690;SDS011;29293;52.190;21.226;2023-07-22T21:42:45;8.90;;;4.50;;
43690;SDS011;29293;52.190;21.226;2023-07-22T21:57:48;7.30;;;4.60;;
43690;SDS011;29293;52.190;21.226;2023-07-22T22:12:52;8.40;;;4.90;;
43690;SDS011;29293;52.190;21.226;2023-07-22T22:27:56;11.50;;;4.90;;
43690;SDS011;29293;52.190;21.226;2023-07-22T22:43:00;8.60;;;5.10;;
43690;SDS011;29293;52.190;21.226;2023-07-22T22:58:04;8.70;;;5.20;;
43690;SDS011;29293;52.190;21.226;2023-07-22T23:13:08;8.40;;;5.40;;
43690;SDS011;29293;52.190;21.226;2023-07-22T23:28:12;8.70;;;5.90;;
43690;SDS011;29293;52.190;21.226;2023-07-22T23:43:15;10.80;;;6.20;;
43690;SDS011;29293;52.190;21.226;2023-07-22T23:58:22;9.60;;;6.20;;
